OMAAVOML

Guest
Details From OMAA - Abu Dhabi Intl
To VOML - Mangalore
Flight Number -
Tags Generated
Created
Modified
Stats Distance 1,341 nm / 2,483 km
Max Altitude 0 ft / 0 m
Waypoints 4
Social Downloads 0
Likes 0
Share VATSIM

Download

Looking for another format? Having issues loading an existing format? Contact us
Advertisement - Login to hide

Notes

Generated

Route

OMAA GEVED ML VOML

ID Type Via Altitude Latitude Longitude Leg Dist Tot Dist Heading (true) Name
O OMAA APT - 0 ft / 0 m 24.44439˚ 54.63521˚ - 0 nm - -
GEVED FIX - 0 ft / 0 m 23.01806˚ 57.85306˚ 196 nm 196 nm 115° / 116° -
ML NDB - 0 ft / 0 m 12.96319˚ 74.89194˚ 1143 nm 1340 nm 119° / 124° MANGALORE NDB
O VOML APT - 0 ft / 0 m 12.96116˚ 74.88262˚ 0 nm 1340 nm 257° / 257° -

Altitude Profile

Advertisement - Login to hide

Weather


0- 5 10 15 20 25 30 35+ Temperature / ° C

Clouds and Precipitation
Forecast for 2017-12-16 12:00 UTC. Updated 2 hours ago

Ground ~20,000 ft ~40,000 ft Winds

OMAA

Details ICAO OMAA (AUH)
Name ABU DHABI INTL
Region United Arab Emirates
Timezone Asia/Dubai (UTC+4.0)
Stats Elevation 88 ft / 27 m (AMSL)
Location 24.433049° 54.651182°
Runways 1
Magnetic Variation 1.980° E

METAR

OMAA 161300Z 12005KT CAVOK 26/08 Q1017 NOSIG

Decode

TAF

TAF OMAA 161100Z 1612/1718 19010KT 8000 FEW040 BECMG 1612/1614 03012KT FEW040TCU BECMG 1619/1621 09004KT NSC PROB30 TEMPO 1700/1705 VRB02KT 4000 HZ BECMG 1705/1707 18012KT BECMG 1709/1711 34010KT FEW050TCU PROB30 TEMPO 1710/1716 VRB30G40KT 3000 TSRA BLDU FEW045CB BECMG 1716/1718 05005KT

Decode

Departure Runways

ID Width Length Bearing (true) Bearing (mag) Surface Threshold Offset Overrun Length
13 148 ft / 45 m 13,461 ft / 4,103 m 127.94° 125.96° Asphalt 0 ft / 0 m 180 ft / 55 m
31 148 ft / 45 m 13,461 ft / 4,103 m 307.95° 305.97° Asphalt 0 ft / 0 m 196 ft / 60 m

VOML

Details ICAO VOML (IXE)
Name MANGALORE
Region India
Timezone Asia/Kolkata (UTC+5.5)
Stats Elevation 337 ft / 103 m (AMSL)
Location 12.957941° 74.888702°
Runways 2
Magnetic Variation 1.187° W

METAR

VOML 161300Z 29004KT 6000 NSC 29/22 Q1011 NOSIG

Decode

TAF

Not found

Destination Runways

ID Width Length Bearing (true) Bearing (mag) Surface Threshold Offset Overrun Length
06 151 ft / 46 m 8,054 ft / 2,455 m 58.13° 59.32° Concrete 394 ft / 120 m 0 ft / 0 m
09 151 ft / 46 m 5,321 ft / 1,622 m 89.10° 90.29° Asphalt 0 ft / 0 m 0 ft / 0 m
24 151 ft / 46 m 8,054 ft / 2,455 m 238.13° 239.32° Concrete 0 ft / 0 m 0 ft / 0 m
27 151 ft / 46 m 5,321 ft / 1,622 m 269.11° 270.30° Asphalt 0 ft / 0 m 0 ft / 0 m

Approach Navaids

Runway Type Ident Frequency Range Bearing (true) Bearing (mag) Slope Elevation
24 Localiser IMNG 110.10 MHz 18 nm / 33 km 238.14° 239.33° - 337 ft / 103 m (AMSL)
24 Glidescope IMNG 110.10 MHz 10 nm / 19 km 238.13° 239.32° 3.00° 337 ft / 103 m (AMSL)
24 DME IMNG 110.10 MHz 18 nm / 33 km - - - 337 ft / 103 m (AMSL)